Terminal Aerodrome Forecast
Issued by NWS

Home | Current Version | Previous Version | Text Only | Print | Product List | Glossary On
Versions: 1 2 3 4 5 6 7 8 9 10 11 12 13 14 15 16 17 18
000
FTAK31 PAJN 202100 AAB
TAFAWG
TAF AMD
PAWG 202158Z 2022/2118 09010G15KT P6SM -RA FEW015 BKN025 OVC050
      WS020/24030KT
      TEMPO 2022/2102 15006KT 3SM RA BR BKN010 BKN025 OVC040
     FM210200 10005KT 4SM RA BR BKN015 OVC025
     FM210900 13010KT 2SM RA BR BKN006 OVC015=

USA.gov is the U.S. government's official web portal to all federal, state and local government web resources and services.